| Date | Time | Temp. (oF) | Dew Point (oF) | Rel. Hum. (%) | Press. (in.) | Wind Dir. | Wind Speed (mph) | Hourly Rainfall (in.) |
|
|---|---|---|---|---|---|---|---|---|---|
| 1 | 07/20 | 00:00 | 68 | 57 | 69 | 30.09 | ENE | 1 | 0.00 |
| 2 | 07/19 | 23:00 | 70 | 56 | 63 | 30.08 | E | 1 | 0.00 |
| 3 | 07/19 | 22:00 | 73 | 55 | 54 | 30.06 | ENE | 1 | 0.00 |
| 4 | 07/19 | 21:00 | 76 | 54 | 48 | 30.05 | ENE | 2 | 0.00 |
| 5 | 07/19 | 20:00 | 82 | 52 | 37 | 30.02 | S | 3 | 0.00 |
| 6 | 07/19 | 19:00 | 85 | 52 | 33 | 30.01 | SSE | 1 | 0.00 |
| 7 | 07/19 | 18:00 | 85 | 52 | 33 | 30.02 | S | 2 | 0.00 |
| 8 | 07/19 | 17:00 | 86 | 51 | 31 | 30.04 | NNE | 2 | 0.00 |
| 9 | 07/19 | 16:00 | 87 | 54 | 33 | 30.05 | WNW | 4 | 0.00 |
| 10 | 07/19 | 15:00 | 85 | 54 | 36 | 30.06 | S | 3 | 0.00 |
| 11 | 07/19 | 14:00 | 85 | 53 | 35 | 30.06 | WSW | 2 | 0.00 |
| 12 | 07/19 | 13:00 | 83 | 53 | 37 | 30.08 | WSW | 3 | 0.00 |
| 13 | 07/19 | 12:00 | 82 | 53 | 38 | 30.09 | W | 5 | 0.00 |
| 14 | miss | miss | miss | miss | miss | miss | miss | miss | |
| 15 | 07/19 | 11:43 | 80 | 51 | 37 | 30.09 | NNE | 3 | 0.00 |
| 16 | miss | miss | miss | miss | miss | miss | miss | miss | |
| 17 | 07/19 | 11:41 | 80 | 51 | 37 | 30.09 | ENE | 1 | 0.00 |
| 18 | miss | miss | miss | miss | miss | miss | miss | miss | |
| 19 | 07/19 | 11:39 | 80 | 50 | 36 | 30.10 | NNE | 6 | 0.00 |
| 20 | miss | miss | miss | miss | miss | miss | miss | miss | |
| 21 | 07/19 | 11:37 | 80 | 50 | 36 | 30.10 | NNW | 7 | 0.00 |
| 22 | miss | miss | miss | miss | miss | miss | miss | miss | |
| 23 | 07/19 | 11:35 | 81 | 52 | 38 | 30.10 | NNE | 5 | 0.00 |
| 24 | miss | miss | miss | miss | miss | miss | miss | miss | |
| 25 | 07/19 | 11:33 | 81 | 52 | 38 | 30.10 | NW | 6 | 0.00 |
| 26 | miss | miss | miss | miss | miss | miss | miss | miss | |
| 27 | 07/19 | 11:33 | 81 | 52 | 38 | 30.10 | NW | 6 | 0.00 |
| 28 | miss | miss | miss | miss | miss | miss | miss | miss | |
| 29 | 07/19 | 11:33 | 81 | 52 | 38 | 30.10 | NW | 6 | 0.00 |
| 30 | miss | miss | miss | miss | miss | miss | miss | miss | |
| 31 | 07/19 | 11:33 | 81 | 52 | 38 | 30.10 | NW | 6 | 0.00 |
| 32 | miss | miss | miss | miss | miss | miss | miss | miss | |
| 33 | 07/19 | 11:33 | 81 | 52 | 38 | 30.10 | NW | 6 | 0.00 |
| 34 | miss | miss | miss | miss | miss | miss | miss | miss | |
| 35 | 07/19 | 11:33 | 81 | 52 | 38 | 30.10 | NW | 6 | 0.00 |
| 36 | miss | miss | miss | miss | miss | miss | miss | miss | |
| 37 | 07/19 | 11:33 | 81 | 52 | 38 | 30.10 | NW | 6 | 0.00 |
| 38 | 07/19 | 11:00 | 79 | 50 | 38 | 30.10 | NNE | 3 | 0.00 |
| 39 | 07/19 | 10:00 | 74 | 48 | 41 | 30.10 | SSW | 2 | 0.00 |
| 40 | 07/19 | 09:00 | 69 | 52 | 55 | 30.10 | NNW | 3 | 0.00 |
| 41 | 07/19 | 08:00 | 63 | 56 | 79 | 30.09 | NNW | 3 | 0.00 |
| 42 | 07/19 | 07:00 | 59 | 57 | 95 | 30.08 | NNE | 0 | 0.00 |
| 43 | 07/19 | 06:00 | 59 | 57 | 94 | 30.06 | NNE | 0 | 0.00 |
| 44 | 07/19 | 05:00 | 60 | 57 | 93 | 30.06 | NNE | 0 | 0.00 |
| 45 | 07/19 | 04:00 | 61 | 58 | 91 | 30.05 | NNE | 0 | 0.00 |
| 46 | 07/19 | 03:00 | 62 | 58 | 89 | 30.04 | NNE | 1 | 0.00 |
| 47 | 07/19 | 02:00 | 64 | 60 | 88 | 30.03 | ESE | 0 | 0.00 |
| 48 | 07/19 | 01:00 | 65 | 59 | 83 | 30.01 | ESE | 1 | 0.00 |
| 49 | 07/19 | 00:00 | 66 | 60 | 82 | 29.99 | ESE | 1 | 0.00 |
| 50 | 07/18 | 23:00 | 69 | 58 | 70 | 29.97 | NW | 1 | 0.00 |
| 51 | 07/18 | 22:00 | 73 | 56 | 57 | 29.96 | NW | 0 | 0.00 |
| 52 | 07/18 | 21:00 | 77 | 55 | 47 | 29.94 | NW | 2 | 0.00 |
| 53 | 07/18 | 20:00 | 81 | 54 | 41 | 29.92 | NW | 4 | 0.00 |
| 54 | 07/18 | 19:00 | 84 | 55 | 38 | 29.91 | WNW | 5 | 0.00 |
| 55 | 07/18 | 18:00 | 84 | 53 | 36 | 29.90 | NNW | 3 | 0.00 |
| 56 | 07/18 | 17:00 | 83 | 57 | 43 | 29.91 | WSW | 4 | 0.00 |
| 57 | 07/18 | 16:00 | 87 | 56 | 36 | 29.92 | NW | 8 | 0.00 |
| 58 | 07/18 | 15:00 | 85 | 58 | 41 | 29.92 | NNW | 8 | 0.00 |
| 59 | 07/18 | 14:00 | 85 | 61 | 45 | 29.92 | NNW | 3 | 0.00 |
| 60 | 07/18 | 13:00 | 82 | 60 | 48 | 29.93 | NNE | 7 | 0.00 |
| 61 | 07/18 | 12:00 | 81 | 62 | 54 | 29.94 | WNW | 6 | 0.00 |
| 62 | 07/18 | 11:00 | 78 | 61 | 57 | 29.94 | NNW | 4 | 0.00 |
| 63 | 07/18 | 10:00 | 76 | 61 | 61 | 29.94 | W | 4 | 0.00 |
| 64 | 07/18 | 09:00 | 73 | 60 | 64 | 29.93 | WNW | 5 | 0.00 |
| 65 | 07/18 | 08:00 | 70 | 59 | 69 | 29.93 | NNW | 7 | 0.00 |
| 66 | 07/18 | 07:00 | 69 | 60 | 75 | 29.91 | WSW | 4 | 0.00 |
| 67 | 07/18 | 06:00 | 69 | 59 | 72 | 29.90 | WNW | 3 | 0.00 |
| 68 | 07/18 | 05:00 | 71 | 59 | 68 | 29.89 | WSW | 1 | 0.00 |
| 69 | 07/18 | 04:00 | 72 | 61 | 69 | 29.88 | NW | 3 | 0.00 |
| 70 | 07/18 | 03:00 | 73 | 64 | 76 | 29.86 | WNW | 4 | 0.00 |
| 71 | 07/18 | 02:00 | 74 | 68 | 82 | 29.85 | NW | 4 | 0.00 |
| 72 | 07/18 | 01:00 | 74 | 68 | 82 | 29.85 | WNW | 4 | 0.00 |
| 73 | 07/18 | 00:00 | 74 | 68 | 82 | 29.83 | WNW | 5 | 0.00 |